createdAt,value
2018-05-01T00:00:11.024Z,1001.38
2018-05-01T00:01:11.082Z,1001.42
2018-05-01T00:02:11.152Z,1001.29
2018-05-01T00:03:11.208Z,1001.39
2018-05-01T00:04:11.280Z,1001.38
2018-05-01T00:05:11.333Z,1001.31
2018-05-01T00:06:11.389Z,1001.38
2018-05-01T00:07:11.449Z,1001.45
2018-05-01T00:08:11.512Z,1001.42
2018-05-01T00:09:11.596Z,1001.44
2018-05-01T00:10:11.642Z,1001.46
2018-05-01T00:11:11.697Z,1001.35
2018-05-01T00:12:11.760Z,1001.38
2018-05-01T00:13:11.821Z,1001.37
2018-05-01T00:14:11.890Z,1001.45
2018-05-01T00:15:11.949Z,1001.42
2018-05-01T00:16:12.401Z,1001.44
2018-05-01T00:17:12.073Z,1001.47
2018-05-01T00:18:12.129Z,1001.54
2018-05-01T00:19:12.213Z,1001.47
2018-05-01T00:20:12.254Z,1001.50
2018-05-01T00:21:12.318Z,1001.51
2018-05-01T00:22:12.377Z,1001.56
2018-05-01T00:23:12.446Z,1001.46
2018-05-01T00:24:12.506Z,1001.51
2018-05-01T00:25:12.566Z,1001.55
2018-05-01T00:26:12.635Z,1001.64
2018-05-01T00:27:12.690Z,1001.55
2018-05-01T00:28:12.749Z,1001.55
2018-05-01T00:29:12.813Z,1001.54
2018-05-01T00:30:12.874Z,1001.55
2018-05-01T00:31:12.942Z,1001.64
2018-05-01T00:32:12.994Z,1001.60
2018-05-01T00:33:13.054Z,1001.61
2018-05-01T00:34:13.418Z,1001.73
2018-05-01T00:35:13.174Z,1001.63
2018-05-01T00:36:13.238Z,1001.68
2018-05-01T00:37:13.302Z,1001.63
2018-05-01T00:38:13.362Z,1001.79
2018-05-01T00:39:13.430Z,1001.82
2018-05-01T00:40:13.490Z,1001.68
2018-05-01T00:41:13.546Z,1001.65
2018-05-01T00:42:13.606Z,1001.62
2018-05-01T00:43:13.670Z,1001.64
2018-05-01T00:44:13.738Z,1001.77
2018-05-01T00:45:13.806Z,1001.82
2018-05-01T00:46:13.854Z,1001.65
2018-05-01T00:47:13.914Z,1001.71
2018-05-01T00:48:13.978Z,1001.80
2018-05-01T00:49:14.046Z,1001.74
2018-05-01T00:50:14.107Z,1001.72
2018-05-01T00:51:14.163Z,1001.76
2018-05-01T00:52:14.223Z,1001.74
2018-05-01T00:53:14.286Z,1001.79
2018-05-01T00:54:14.355Z,1001.83
2018-05-01T00:55:14.422Z,1001.84
2018-05-01T00:56:14.472Z,1001.81
2018-05-01T00:57:14.531Z,1001.80
2018-05-01T00:58:14.594Z,1001.82
2018-05-01T00:59:14.662Z,1001.84
2018-05-01T01:00:14.727Z,1001.84
2018-05-01T01:01:14.778Z,1001.79
2018-05-01T01:02:14.838Z,1001.80
2018-05-01T01:03:14.902Z,1001.85
2018-05-01T01:04:14.973Z,1001.85
2018-05-01T01:05:15.043Z,1001.84
2018-05-01T01:06:15.087Z,1001.87
2018-05-01T01:07:15.151Z,1001.85
2018-05-01T01:08:15.210Z,1001.86
2018-05-01T01:09:15.287Z,1001.90
2018-05-01T01:10:15.334Z,1001.90
2018-05-01T01:11:15.395Z,1001.93
2018-05-01T01:12:15.456Z,1001.89
2018-05-01T01:13:15.519Z,1002.00
2018-05-01T01:14:15.584Z,1001.83
2018-05-01T01:15:15.662Z,1001.90
2018-05-01T01:16:15.783Z,1001.86
2018-05-01T01:17:15.764Z,1001.86
2018-05-01T01:18:15.824Z,1001.92
2018-05-01T01:19:15.892Z,1002.01
2018-05-01T01:20:15.956Z,1001.98
2018-05-01T01:21:16.016Z,1001.99
2018-05-01T01:22:16.071Z,1001.94
2018-05-01T01:23:16.131Z,1001.93
2018-05-01T01:24:16.348Z,1001.97
2018-05-01T01:25:16.255Z,1002.00
2018-05-01T01:26:16.316Z,1001.92
2018-05-01T01:27:16.380Z,1002.08
2018-05-01T01:28:16.439Z,1002.11
2018-05-01T01:29:16.508Z,1002.14
2018-05-01T01:30:16.572Z,1002.18
2018-05-01T01:31:16.624Z,1002.20
2018-05-01T01:32:16.695Z,1002.04
2018-05-01T01:33:16.748Z,1002.21
2018-05-01T01:34:16.816Z,1002.16
2018-05-01T01:35:16.880Z,1002.17
2018-05-01T01:36:16.932Z,1002.11
2018-05-01T01:37:17.002Z,1002.13
2018-05-01T01:38:17.080Z,1002.21
2018-05-01T01:39:17.134Z,1002.17
2018-05-01T01:40:17.180Z,1002.18
2018-05-01T01:41:17.240Z,1002.08
2018-05-01T01:42:17.301Z,1002.17
2018-05-01T01:43:17.360Z,1002.24
2018-05-01T01:44:20.193Z,1002.25
2018-05-01T01:45:17.498Z,1002.26
2018-05-01T01:46:17.613Z,1002.25
2018-05-01T01:47:17.605Z,1002.41
2018-05-01T01:48:17.910Z,1002.33
2018-05-01T01:49:17.821Z,1002.50
2018-05-01T01:50:18.302Z,1002.42
2018-05-01T01:51:17.866Z,1002.32
2018-05-01T01:52:17.925Z,1002.34
2018-05-01T01:53:18.045Z,1002.38
2018-05-01T01:54:18.625Z,1002.38
2018-05-01T01:55:18.097Z,1002.40
2018-05-01T01:56:18.474Z,1002.43
2018-05-01T01:57:18.231Z,1002.36
2018-05-01T01:58:18.292Z,1002.38
2018-05-01T01:59:18.521Z,1002.36
2018-05-01T02:00:18.409Z,1002.45
2018-05-01T02:01:18.473Z,1002.44
2018-05-01T02:02:18.702Z,1002.48
2018-05-01T02:03:18.597Z,1002.48
2018-05-01T02:04:18.662Z,1002.47
2018-05-01T02:05:18.722Z,1002.53
2018-05-01T02:06:18.780Z,1002.54
2018-05-01T02:07:18.850Z,1002.46
2018-05-01T02:08:18.954Z,1002.59
2018-05-01T02:09:18.966Z,1002.53
2018-05-01T02:10:19.022Z,1002.57
2018-05-01T02:11:19.102Z,1002.55
2018-05-01T02:12:19.258Z,1002.58
2018-05-01T02:13:19.214Z,1002.56
2018-05-01T02:14:19.270Z,1002.58
2018-05-01T02:15:19.330Z,1002.57
2018-05-01T02:16:19.386Z,1002.58
2018-05-01T02:17:19.462Z,1002.63
2018-05-01T02:18:19.526Z,1002.65
2018-05-01T02:19:19.574Z,1002.62
2018-05-01T02:20:19.646Z,1002.75
2018-05-01T02:21:19.702Z,1002.70
2018-05-01T02:22:19.778Z,1002.78
2018-05-01T02:23:19.870Z,1002.71
2018-05-01T02:24:19.882Z,1002.64
2018-05-01T02:25:20.110Z,1002.71
2018-05-01T02:26:20.023Z,1002.78
2018-05-01T02:27:20.103Z,1002.90
2018-05-01T02:28:20.143Z,1002.79
2018-05-01T02:29:20.191Z,1002.81
2018-05-01T02:30:20.251Z,1002.68
2018-05-01T02:31:20.659Z,1002.76
2018-05-01T02:32:20.395Z,1002.84
2018-05-01T02:33:20.443Z,1002.81
2018-05-01T02:34:20.503Z,1002.81
2018-05-01T02:35:20.562Z,1002.91
2018-05-01T02:36:20.643Z,1002.84
2018-05-01T02:37:20.683Z,1002.86
2018-05-01T02:38:20.753Z,1002.87
2018-05-01T02:39:20.802Z,1002.93
2018-05-01T02:40:20.864Z,1002.85
2018-05-01T02:41:21.029Z,1002.93
2018-05-01T02:42:20.996Z,1002.94
2018-05-01T02:43:21.055Z,1002.89
2018-05-01T02:44:21.111Z,1002.98
2018-05-01T02:45:21.168Z,1002.96
2018-05-01T02:46:21.255Z,1002.99
2018-05-01T02:47:21.295Z,1002.98
2018-05-01T02:48:21.368Z,1003.02
2018-05-01T02:49:21.428Z,1003.04
2018-05-01T02:50:21.484Z,1003.01
2018-05-01T02:51:21.552Z,1003.03
2018-05-01T02:52:21.602Z,1003.05
2018-05-01T02:53:21.664Z,1003.07
2018-05-01T02:54:21.732Z,1003.07
2018-05-01T02:55:21.780Z,1003.11
2018-05-01T02:56:21.844Z,1003.09
2018-05-01T02:57:21.908Z,1003.11
2018-05-01T02:58:21.973Z,1003.07
2018-05-01T02:59:22.036Z,1003.07
2018-05-01T03:00:22.092Z,1003.08
2018-05-01T03:01:22.155Z,1003.00
2018-05-01T03:02:22.213Z,1003.12
2018-05-01T03:03:22.480Z,1003.05
2018-05-01T03:04:22.338Z,1003.09
2018-05-01T03:05:22.397Z,1003.08
2018-05-01T03:06:22.466Z,1003.05
2018-05-01T03:07:22.522Z,1003.11
2018-05-01T03:08:22.589Z,1003.07
2018-05-01T03:09:22.644Z,1003.05
2018-05-01T03:10:22.708Z,1003.14
2018-05-01T03:11:22.764Z,1003.23
2018-05-01T03:12:22.825Z,1003.18
2018-05-01T03:13:22.894Z,1003.15
2018-05-01T03:14:22.954Z,1003.10
2018-05-01T03:15:23.009Z,1003.17
2018-05-01T03:16:23.075Z,1003.20
2018-05-01T03:17:23.136Z,1003.24
2018-05-01T03:18:23.213Z,1003.17
2018-05-01T03:19:23.256Z,1003.21
2018-05-01T03:20:23.320Z,1003.14
2018-05-01T03:21:23.381Z,1003.23
2018-05-01T03:22:23.440Z,1003.26
2018-05-01T03:23:23.513Z,1003.23
2018-05-01T03:24:23.568Z,1003.29
2018-05-01T03:25:23.699Z,1003.27
2018-05-01T03:26:23.685Z,1003.31
2018-05-01T03:27:23.742Z,1003.26
2018-05-01T03:28:23.845Z,1003.39
2018-05-01T03:29:23.876Z,1003.32
2018-05-01T03:30:23.925Z,1003.32
2018-05-01T03:31:23.989Z,1003.29
2018-05-01T03:32:24.054Z,1003.39
2018-05-01T03:33:24.272Z,1003.35
2018-05-01T03:34:24.179Z,1003.28
2018-05-01T03:35:24.241Z,1003.32
2018-05-01T03:36:24.297Z,1003.41
2018-05-01T03:37:24.357Z,1003.40
2018-05-01T03:38:24.445Z,1003.40
2018-05-01T03:39:24.489Z,1003.40
2018-05-01T03:40:24.541Z,1003.43
2018-05-01T03:41:24.605Z,1003.38
2018-05-01T03:42:24.666Z,1003.40
2018-05-01T03:43:24.733Z,1003.35
2018-05-01T03:44:24.801Z,1003.46
2018-05-01T03:45:24.849Z,1003.39
2018-05-01T03:46:24.913Z,1003.38
2018-05-01T03:47:24.982Z,1003.45
2018-05-01T03:48:25.038Z,1003.44
2018-05-01T03:49:25.128Z,1003.43
2018-05-01T03:50:25.153Z,1003.35
2018-05-01T03:51:25.218Z,1003.41
2018-05-01T03:52:25.282Z,1003.46
2018-05-01T03:53:26.156Z,1003.40
2018-05-01T03:54:25.397Z,1003.53
2018-05-01T03:55:25.474Z,1003.46
2018-05-01T03:56:25.523Z,1003.49
2018-05-01T03:57:25.582Z,1003.51
2018-05-01T03:58:25.653Z,1003.48
2018-05-01T03:59:25.714Z,1003.50
2018-05-01T04:00:25.766Z,1003.52
2018-05-01T04:01:25.834Z,1003.50
2018-05-01T04:02:25.896Z,1003.55
2018-05-01T04:03:25.958Z,1003.65
2018-05-01T04:04:26.046Z,1003.59
2018-05-01T04:05:26.078Z,1003.68
2018-05-01T04:06:26.134Z,1003.66
2018-05-01T04:07:26.206Z,1003.68
2018-05-01T04:08:26.574Z,1003.65
2018-05-01T04:09:26.315Z,1003.58
2018-05-01T04:10:26.374Z,1003.68
2018-05-01T04:11:26.458Z,1003.65
2018-05-01T04:12:26.506Z,1003.66
2018-05-01T04:13:26.562Z,1003.74
2018-05-01T04:14:26.802Z,1003.83
2018-05-01T04:15:26.690Z,1003.79
2018-05-01T04:16:26.751Z,1003.76
2018-05-01T04:17:26.810Z,1003.73
2018-05-01T04:18:26.876Z,1003.73
2018-05-01T04:19:26.939Z,1003.79
2018-05-01T04:20:26.999Z,1003.92
2018-05-01T04:21:27.055Z,1003.86
2018-05-01T04:22:27.114Z,1003.85
2018-05-01T04:23:27.178Z,1003.91
2018-05-01T04:24:27.406Z,1003.91
2018-05-01T04:25:27.360Z,1003.89
2018-05-01T04:26:27.358Z,1003.98
2018-05-01T04:27:27.426Z,1003.93
2018-05-01T04:28:27.483Z,1003.96
2018-05-01T04:29:27.546Z,1004.08
2018-05-01T04:30:27.614Z,1004.04
2018-05-01T04:31:27.667Z,1004.07
2018-05-01T04:32:27.735Z,1004.05
2018-05-01T04:33:27.791Z,1004.05
2018-05-01T04:34:27.859Z,1004.09
2018-05-01T04:35:27.919Z,1004.06
2018-05-01T04:36:27.975Z,1004.20
2018-05-01T04:37:28.031Z,1004.16
2018-05-01T04:38:28.095Z,1004.15
2018-05-01T04:39:28.161Z,1004.24
2018-05-01T04:40:28.235Z,1004.31
2018-05-01T04:41:28.279Z,1004.21
2018-05-01T04:42:28.339Z,1004.36
2018-05-01T04:43:28.403Z,1004.32
2018-05-01T04:44:28.468Z,1004.31
2018-05-01T04:45:28.536Z,1004.39
2018-05-01T04:46:28.592Z,1004.35
2018-05-01T04:47:28.644Z,1004.41
2018-05-01T04:48:28.752Z,1004.39
2018-05-01T04:49:28.773Z,1004.50
2018-05-01T04:50:28.839Z,1004.50
2018-05-01T04:51:28.899Z,1004.50
2018-05-01T04:52:28.968Z,1004.48
2018-05-01T04:53:29.016Z,1004.49
2018-05-01T04:54:29.076Z,1004.50
2018-05-01T04:55:29.140Z,1004.52
2018-05-01T04:56:29.217Z,1004.55
2018-05-01T04:57:29.268Z,1004.60
2018-05-01T04:58:29.335Z,1004.67
2018-05-01T04:59:29.383Z,1004.71
2018-05-01T05:00:29.448Z,1004.69
2018-05-01T05:01:29.516Z,1004.63
2018-05-01T05:02:29.584Z,1004.65
2018-05-01T05:03:29.632Z,1004.76
2018-05-01T05:04:29.692Z,1004.69
2018-05-01T05:05:29.752Z,1004.74
2018-05-01T05:06:29.824Z,1004.73
2018-05-01T05:07:29.908Z,1004.73
2018-05-01T05:08:30.003Z,1004.78
2018-05-01T05:09:30.051Z,1004.75
2018-05-01T05:10:30.060Z,1004.69
2018-05-01T05:11:30.413Z,1004.80
2018-05-01T05:12:30.185Z,1004.80
2018-05-01T05:13:30.244Z,1004.81
2018-05-01T05:14:30.304Z,1004.83
2018-05-01T05:15:30.368Z,1004.91
2018-05-01T05:16:30.438Z,1004.91
2018-05-01T05:17:30.500Z,1004.90
2018-05-01T05:18:30.553Z,1004.96
2018-05-01T05:19:30.612Z,1005.04
2018-05-01T05:20:30.677Z,1005.03
2018-05-01T05:21:30.745Z,1005.03
2018-05-01T05:22:30.805Z,1005.05
2018-05-01T05:23:30.861Z,1005.09
2018-05-01T05:24:30.921Z,1005.06
2018-05-01T05:25:30.985Z,1005.14
2018-05-01T05:26:31.049Z,1005.12
2018-05-01T05:27:31.113Z,1005.22
2018-05-01T05:28:31.173Z,1005.12
2018-05-01T05:29:31.229Z,1005.21
2018-05-01T05:30:31.291Z,1005.26
2018-05-01T05:31:31.377Z,1005.25
2018-05-01T05:32:31.413Z,1005.18
2018-05-01T05:33:31.478Z,1005.19
2018-05-01T05:34:31.537Z,1005.29
2018-05-01T05:35:31.597Z,1005.21
2018-05-01T05:36:31.665Z,1005.26
2018-05-01T05:37:31.729Z,1005.35
2018-05-01T05:38:31.781Z,1005.31
2018-05-01T05:39:31.849Z,1005.31
2018-05-01T05:40:31.909Z,1005.41
2018-05-01T05:41:31.989Z,1005.30
2018-05-01T05:42:32.034Z,1005.43
2018-05-01T05:43:32.089Z,1005.45
2018-05-01T05:44:32.269Z,1005.45
2018-05-01T05:45:32.213Z,1005.50
2018-05-01T05:46:32.278Z,1005.45
2018-05-01T05:47:32.646Z,1005.61
2018-05-01T05:48:32.398Z,1005.54
2018-05-01T05:49:32.462Z,1005.59
2018-05-01T05:50:32.525Z,1005.63
2018-05-01T05:51:32.586Z,1005.58
2018-05-01T05:52:32.654Z,1005.64
2018-05-01T05:53:32.714Z,1005.67
2018-05-01T05:54:32.770Z,1005.70
2018-05-01T05:55:32.830Z,1005.67
2018-05-01T05:56:32.894Z,1005.71
2018-05-01T05:57:32.978Z,1005.70
2018-05-01T05:58:33.018Z,1005.81
2018-05-01T05:59:33.078Z,1005.83
2018-05-01T06:00:33.139Z,1005.78
2018-05-01T06:01:33.202Z,1005.86
2018-05-01T06:02:33.262Z,1005.74
2018-05-01T06:03:33.634Z,1005.73
2018-05-01T06:04:33.387Z,1005.76
2018-05-01T06:05:33.446Z,1005.81
2018-05-01T06:06:33.510Z,1005.78
2018-05-01T06:07:33.651Z,1005.75
2018-05-01T06:08:33.638Z,1005.85
2018-05-01T06:09:33.702Z,1005.71
2018-05-01T06:10:33.755Z,1005.78
2018-05-01T06:11:33.819Z,1005.80
2018-05-01T06:12:33.879Z,1005.79
2018-05-01T06:13:33.973Z,1005.75
2018-05-01T06:14:34.011Z,1005.98
2018-05-01T06:15:34.066Z,1005.78
2018-05-01T06:16:34.127Z,1005.79
2018-05-01T06:17:34.191Z,1005.91
2018-05-01T06:18:34.263Z,1005.82
2018-05-01T06:19:34.475Z,1005.97
2018-05-01T06:20:34.378Z,1005.88
2018-05-01T06:21:34.435Z,1005.90
2018-05-01T06:22:34.500Z,1005.86
2018-05-01T06:23:34.563Z,1005.94
2018-05-01T06:24:34.632Z,1005.93
2018-05-01T06:25:34.691Z,1005.97
2018-05-01T06:26:34.750Z,1005.96
2018-05-01T06:27:34.807Z,1005.89
2018-05-01T06:28:34.876Z,1005.97
2018-05-01T06:29:34.943Z,1006.04
2018-05-01T06:30:34.999Z,1006.01
2018-05-01T06:31:35.063Z,1006.17
2018-05-01T06:32:35.116Z,1006.21
2018-05-01T06:33:35.180Z,1006.05
2018-05-01T06:34:35.252Z,1006.08
2018-05-01T06:35:35.300Z,1006.09
2018-05-01T06:36:35.367Z,1006.09
2018-05-01T06:37:35.424Z,1006.14
2018-05-01T06:38:35.493Z,1006.14
2018-05-01T06:39:35.561Z,1006.23
2018-05-01T06:40:35.616Z,1006.23
2018-05-01T06:41:35.672Z,1006.26
2018-05-01T06:42:35.736Z,1006.24
2018-05-01T06:43:35.796Z,1006.29
2018-05-01T06:44:35.864Z,1006.29
2018-05-01T06:45:35.928Z,1006.38
2018-05-01T06:46:35.980Z,1006.41
2018-05-01T06:47:36.044Z,1006.38
2018-05-01T06:48:36.120Z,1006.42
2018-05-01T06:49:36.200Z,1006.48
2018-05-01T06:50:36.232Z,1006.43
2018-05-01T06:51:36.299Z,1006.48
2018-05-01T06:52:36.357Z,1006.49
2018-05-01T06:53:36.420Z,1006.67
2018-05-01T06:54:36.484Z,1006.64
2018-05-01T06:55:36.548Z,1006.70
2018-05-01T06:56:36.604Z,1006.76
2018-05-01T06:57:36.668Z,1006.88
2018-05-01T06:58:36.729Z,1006.90
2018-05-01T06:59:36.797Z,1007.06
2018-05-01T07:00:36.864Z,1007.11
2018-05-01T07:01:36.916Z,1007.49
2018-05-01T07:02:36.983Z,1007.49
2018-05-01T07:03:37.049Z,1007.12
2018-05-01T07:04:37.323Z,1006.98
2018-05-01T07:05:37.169Z,1006.98
2018-05-01T07:06:37.236Z,1006.98
2018-05-01T07:07:37.297Z,1007.05
2018-05-01T07:08:39.049Z,1007.12
2018-05-01T07:09:37.429Z,1007.19
2018-05-01T07:10:37.493Z,1007.16
2018-05-01T07:11:37.553Z,1007.28
2018-05-01T07:12:37.617Z,1007.43
2018-05-01T07:13:37.682Z,1007.59
2018-05-01T07:14:37.762Z,1007.58
2018-05-01T07:15:37.817Z,1007.49
2018-05-01T07:16:37.877Z,1007.53
2018-05-01T07:17:37.938Z,1007.35
2018-05-01T07:18:38.001Z,1007.30
2018-05-01T07:19:38.221Z,1007.47
2018-05-01T07:20:38.135Z,1007.40
2018-05-01T07:21:38.197Z,1007.37
2018-05-01T07:22:38.269Z,1007.60
2018-05-01T07:23:38.329Z,1007.71
2018-05-01T07:24:38.397Z,1007.75
2018-05-01T07:25:38.461Z,1007.90
2018-05-01T07:26:38.521Z,1007.90
2018-05-01T07:27:38.585Z,1008.03
2018-05-01T07:28:38.657Z,1008.05
2018-05-01T07:29:38.725Z,1007.74
2018-05-01T07:30:38.789Z,1007.88
2018-05-01T07:31:38.849Z,1007.90
2018-05-01T07:32:38.922Z,1008.24
2018-05-01T07:33:38.984Z,1008.11
2018-05-01T07:34:39.062Z,1007.98
2018-05-01T07:35:39.134Z,1007.83
2018-05-01T07:36:39.181Z,1007.75
2018-05-01T07:37:39.249Z,1007.82
2018-05-01T07:38:39.313Z,1008.13
2018-05-01T07:39:39.389Z,1008.04
2018-05-01T07:40:39.453Z,1007.92
2018-05-01T07:41:39.582Z,1007.97
2018-05-01T07:42:39.581Z,1008.82
2018-05-01T07:43:39.670Z,1008.93
2018-05-01T07:44:39.721Z,1008.69
2018-05-01T07:45:39.793Z,1008.64
2018-05-01T07:46:39.854Z,1008.56
2018-05-01T07:47:39.922Z,1008.81
2018-05-01T07:48:39.997Z,1007.79
2018-05-01T07:49:40.074Z,1008.75
2018-05-01T07:50:40.142Z,1008.62
2018-05-01T07:51:40.202Z,1008.31
2018-05-01T07:52:40.270Z,1008.34
2018-05-01T07:53:40.342Z,1008.26
2018-05-01T07:54:40.418Z,1008.00
2018-05-01T07:55:40.486Z,1007.99
2018-05-01T07:56:40.550Z,1008.47
2018-05-01T07:57:40.622Z,1008.34
2018-05-01T07:58:40.690Z,1008.37
2018-05-01T07:59:40.771Z,1007.49
2018-05-01T08:00:40.850Z,1007.97
2018-05-01T08:01:40.906Z,1008.05
2018-05-01T08:02:40.970Z,1008.50
2018-05-01T08:03:41.042Z,1007.88
2018-05-01T08:04:41.123Z,1008.59
2018-05-01T08:05:41.182Z,1008.25
2018-05-01T08:06:41.250Z,1008.37
2018-05-01T08:07:41.330Z,1008.44
2018-05-01T08:08:41.395Z,1008.91
2018-05-01T08:09:41.471Z,1008.59
2018-05-01T08:10:41.543Z,1007.87
2018-05-01T08:11:41.605Z,1007.55
2018-05-01T08:12:41.680Z,1008.18
2018-05-01T08:13:41.745Z,1008.79
2018-05-01T08:14:41.819Z,1008.79
2018-05-01T08:15:41.891Z,1008.81
2018-05-01T08:16:41.963Z,1008.92
2018-05-01T08:17:42.028Z,1008.86
2018-05-01T08:18:42.154Z,1008.85
2018-05-01T08:19:42.299Z,1008.78
2018-05-01T08:20:42.239Z,1008.57
2018-05-01T08:21:42.315Z,1008.66
2018-05-01T08:22:42.383Z,1007.65
2018-05-01T08:23:42.463Z,1007.67
2018-05-01T08:24:42.539Z,1008.72
2018-05-01T08:25:42.607Z,1008.92
2018-05-01T08:26:42.672Z,1008.73
2018-05-01T08:27:42.767Z,1008.66
2018-05-01T08:28:42.816Z,1008.45
2018-05-01T08:29:42.896Z,1008.70
2018-05-01T08:30:42.960Z,1008.67
2018-05-01T08:31:43.024Z,1008.84
2018-05-01T08:32:43.100Z,1008.19
2018-05-01T08:33:43.168Z,1007.82
2018-05-01T08:34:43.392Z,1008.17
2018-05-01T08:35:43.312Z,1007.86
2018-05-01T08:36:43.381Z,1008.73
2018-05-01T08:37:43.490Z,1008.70
2018-05-01T08:38:43.524Z,1008.82
2018-05-01T08:39:43.601Z,1007.88
2018-05-01T08:40:43.669Z,1007.85
2018-05-01T08:41:43.732Z,1008.72
2018-05-01T08:42:43.804Z,1008.00
2018-05-01T08:43:43.869Z,1008.86
2018-05-01T08:44:43.944Z,1007.96
2018-05-01T08:45:44.021Z,1008.86
2018-05-01T08:46:44.088Z,1008.88
2018-05-01T08:47:44.148Z,1008.02
2018-05-01T08:48:44.225Z,1008.14
2018-05-01T08:49:44.294Z,1008.88
2018-05-01T08:50:44.380Z,1008.89
2018-05-01T08:51:44.428Z,1008.85
2018-05-01T08:52:44.512Z,1008.89
2018-05-01T08:53:44.568Z,1008.98
2018-05-01T08:54:44.649Z,1008.94
2018-05-01T08:55:44.717Z,1008.18
2018-05-01T08:56:44.789Z,1007.99
2018-05-01T08:57:44.854Z,1008.90
2018-05-01T08:58:44.925Z,1008.03
2018-05-01T08:59:44.993Z,1007.97
2018-05-01T09:00:45.070Z,1007.91
2018-05-01T09:01:45.145Z,1008.42
2018-05-01T09:02:45.201Z,1008.53
2018-05-01T09:03:45.274Z,1008.10
2018-05-01T09:04:45.341Z,1008.49
2018-05-01T09:05:45.418Z,1008.17
2018-05-01T09:06:45.493Z,1008.15
2018-05-01T09:07:45.553Z,1008.07
2018-05-01T09:08:45.626Z,1008.38
2018-05-01T09:09:45.689Z,1008.50
2018-05-01T09:10:45.781Z,1008.05
2018-05-01T09:11:45.841Z,1008.14
2018-05-01T09:12:45.901Z,1008.19
2018-05-01T09:13:45.965Z,1008.48
2018-05-01T09:14:46.038Z,1008.36
2018-05-01T09:15:46.113Z,1008.50
2018-05-01T09:16:46.169Z,1008.39
2018-05-01T09:17:46.352Z,1008.44
2018-05-01T09:18:46.309Z,1008.44
2018-05-01T09:19:46.378Z,1008.18
2018-05-01T09:20:46.457Z,1008.14
2018-05-01T09:21:46.525Z,1008.41
2018-05-01T09:22:46.652Z,1008.35
2018-05-01T09:23:46.649Z,1008.22
2018-05-01T09:24:46.717Z,1008.16
2018-05-01T09:25:46.813Z,1008.16
2018-05-01T09:26:46.865Z,1008.16
2018-05-01T09:27:46.923Z,1008.41
2018-05-01T09:28:46.990Z,1008.50
2018-05-01T09:29:47.058Z,1008.21
2018-05-01T09:30:47.126Z,1008.25
2018-05-01T09:31:47.306Z,1008.30
2018-05-01T09:32:47.258Z,1008.27
2018-05-01T09:33:47.326Z,1008.33
2018-05-01T09:34:47.394Z,1008.56
2018-05-01T09:35:47.463Z,1008.52
2018-05-01T09:36:47.530Z,1008.34
2018-05-01T09:37:47.614Z,1008.45
2018-05-01T09:38:47.666Z,1008.52
2018-05-01T09:39:47.750Z,1008.35
2018-05-01T09:40:47.806Z,1008.49
2018-05-01T09:41:47.887Z,1008.51
2018-05-01T09:42:47.946Z,1008.61
2018-05-01T09:43:48.014Z,1008.56
2018-05-01T09:44:48.087Z,1008.58
2018-05-01T09:45:48.138Z,1008.48
2018-05-01T09:46:48.371Z,1008.57
2018-05-01T09:47:48.275Z,1008.56
2018-05-01T09:48:48.334Z,1008.69
2018-05-01T09:49:48.406Z,1008.57
2018-05-01T09:50:48.478Z,1008.58
2018-05-01T09:51:48.551Z,1008.61
2018-05-01T09:52:48.615Z,1008.53
2018-05-01T09:53:48.671Z,1008.53
2018-05-01T09:54:48.763Z,1008.56
2018-05-01T09:55:48.811Z,1008.56
2018-05-01T09:56:48.891Z,1008.57
2018-05-01T09:57:48.955Z,1008.61
2018-05-01T09:58:49.020Z,1008.60
2018-05-01T09:59:49.093Z,1008.58
2018-05-01T10:00:49.164Z,1008.60
2018-05-01T10:01:49.280Z,1008.52
2018-05-01T10:02:49.279Z,1008.52
2018-05-01T10:03:49.364Z,1008.45
2018-05-01T10:04:49.425Z,1008.51
2018-05-01T10:05:49.507Z,1008.50
2018-05-01T10:06:49.607Z,1008.54
2018-05-01T10:07:49.633Z,1008.51
2018-05-01T10:08:49.690Z,1008.45
2018-05-01T10:09:49.796Z,1008.47
2018-05-01T10:10:49.824Z,1008.51
2018-05-01T10:11:49.896Z,1008.58
2018-05-01T10:12:49.969Z,1008.63
2018-05-01T10:13:50.024Z,1008.62
2018-05-01T10:14:50.089Z,1008.62
2018-05-01T10:15:50.165Z,1008.62
2018-05-01T10:16:50.253Z,1008.61
2018-05-01T10:17:50.284Z,1008.58
2018-05-01T10:18:50.348Z,1008.55
2018-05-01T10:19:50.448Z,1008.53
2018-05-01T10:20:50.492Z,1008.57
2018-05-01T10:21:50.557Z,1008.53
2018-05-01T10:22:50.643Z,1008.58
2018-05-01T10:23:50.697Z,1008.59
2018-05-01T10:24:50.753Z,1008.50
2018-05-01T10:25:50.821Z,1008.61
2018-05-01T10:26:50.889Z,1008.67
2018-05-01T10:27:50.977Z,1008.67
2018-05-01T10:28:51.025Z,1008.65
2018-05-01T10:29:51.090Z,1008.73
2018-05-01T10:30:51.154Z,1008.74
2018-05-01T10:31:51.369Z,1008.62
2018-05-01T10:32:51.281Z,1008.60
2018-05-01T10:33:51.345Z,1008.65
2018-05-01T10:34:51.417Z,1008.72
2018-05-01T10:35:51.482Z,1008.78
2018-05-01T10:36:51.549Z,1008.71
2018-05-01T10:37:51.625Z,1008.73
2018-05-01T10:38:51.728Z,1008.78
2018-05-01T10:39:51.765Z,1008.77
2018-05-01T10:40:51.821Z,1008.78
2018-05-01T10:41:51.882Z,1008.72
2018-05-01T10:42:51.957Z,1008.76
2018-05-01T10:43:52.010Z,1008.83
2018-05-01T10:44:52.074Z,1008.89
2018-05-01T10:45:52.142Z,1008.95
2018-05-01T10:46:52.205Z,1008.97
2018-05-01T10:47:52.593Z,1008.96
2018-05-01T10:48:52.333Z,1008.92
2018-05-01T10:49:52.405Z,1008.93
2018-05-01T10:50:52.466Z,1008.93
2018-05-01T10:51:52.530Z,1008.90
2018-05-01T10:52:52.610Z,1008.99
2018-05-01T10:53:52.671Z,1008.90
2018-05-01T10:54:52.734Z,1008.94
2018-05-01T10:55:52.794Z,1008.95
2018-05-01T10:56:52.862Z,1008.94
2018-05-01T10:57:52.940Z,1008.95
2018-05-01T10:58:52.993Z,1008.93
2018-05-01T10:59:53.058Z,1008.91
2018-05-01T11:00:53.129Z,1008.99
2018-05-01T11:01:53.194Z,1008.97
2018-05-01T11:02:53.262Z,1008.91
2018-05-01T11:03:53.350Z,1008.94
2018-05-01T11:04:53.402Z,1008.98
2018-05-01T11:05:53.466Z,1008.95
2018-05-01T11:06:53.526Z,1008.96
2018-05-01T11:07:53.594Z,1009.01
2018-05-01T11:08:53.666Z,1009.06
2018-05-01T11:09:53.734Z,1008.98
2018-05-01T11:10:53.799Z,1008.94
2018-05-01T11:11:53.922Z,1008.95
2018-05-01T11:12:53.926Z,1008.97
2018-05-01T11:13:54.006Z,1008.97
2018-05-01T11:14:54.099Z,1008.99
2018-05-01T11:15:54.142Z,1008.99
2018-05-01T11:16:54.194Z,1008.94
2018-05-01T11:17:54.262Z,1009.00
2018-05-01T11:18:54.330Z,1009.01
2018-05-01T11:19:54.554Z,1009.09
2018-05-01T11:20:54.470Z,1009.07
2018-05-01T11:21:54.531Z,1009.04
2018-05-01T11:22:54.599Z,1009.04
2018-05-01T11:23:54.675Z,1008.99
2018-05-01T11:24:54.747Z,1009.08
2018-05-01T11:25:54.816Z,1009.09
2018-05-01T11:26:54.871Z,1009.08
2018-05-01T11:27:54.943Z,1008.96
2018-05-01T11:28:55.003Z,1009.00
2018-05-01T11:29:55.227Z,1008.98
2018-05-01T11:30:55.139Z,1008.98
2018-05-01T11:31:55.207Z,1009.03
2018-05-01T11:32:55.283Z,1008.97
2018-05-01T11:33:55.342Z,1009.05
2018-05-01T11:34:55.419Z,1009.09
2018-05-01T11:35:55.483Z,1009.09
2018-05-01T11:36:55.547Z,1009.11
2018-05-01T11:37:55.615Z,1009.12
2018-05-01T11:38:55.675Z,1009.02
2018-05-01T11:39:55.811Z,1009.06
2018-05-01T11:40:55.831Z,1009.12
2018-05-01T11:41:55.895Z,1009.08
2018-05-01T11:42:55.967Z,1009.11
2018-05-01T11:43:56.032Z,1009.14
2018-05-01T11:44:56.122Z,1009.14
2018-05-01T11:45:56.150Z,1009.21
2018-05-01T11:46:56.212Z,1009.09
2018-05-01T11:47:56.283Z,1009.18
2018-05-01T11:48:56.352Z,1009.12
2018-05-01T11:49:56.419Z,1009.10
2018-05-01T11:50:56.488Z,1009.11
2018-05-01T11:51:56.585Z,1009.08
2018-05-01T11:52:56.616Z,1009.08
2018-05-01T11:53:56.684Z,1009.13
2018-05-01T11:54:56.756Z,1009.14
2018-05-01T11:55:56.896Z,1009.14
2018-05-01T11:56:56.904Z,1009.10
2018-05-01T11:57:56.956Z,1009.13
2018-05-01T11:58:57.072Z,1009.30
2018-05-01T11:59:57.096Z,1009.21
2018-05-01T12:00:57.161Z,1009.04
2018-05-01T12:01:57.216Z,1009.06
2018-05-01T12:02:57.280Z,1009.13
2018-05-01T12:03:57.352Z,1009.11
2018-05-01T12:04:57.448Z,1009.14
2018-05-01T12:05:57.501Z,1009.19